Time;durP1;ratioP1;P1;durP2;ratioP2;P2;SDS_P1;SDS_P2;PMS_P1;PMS_P2;Temp;Humidity;BMP_temperature;BMP_pressure;BME280_temperature;BME280_humidity;BME280_pressure;Samples;Min_cycle;Max_cycle;Signal;HPM_P1;HPM_P2
2023/04/01 00:00:15;;;;;;;21.00;14.27;;;;;;;8.75;100.00;96428.81;5031526;28;20033;-71
2023/04/01 00:02:41;;;;;;;19.38;13.73;;;;;;;8.78;100.00;96350.06;5032034;28;20026;-71
2023/04/01 00:05:07;;;;;;;15.55;10.85;;;;;;;8.75;100.00;96353.63;5047203;28;20029;-71
2023/04/01 00:07:33;;;;;;;17.55;11.35;;;;;;;8.85;100.00;96269.38;5030679;28;20025;-71
2023/04/01 00:09:58;;;;;;;17.40;12.00;;;;;;;8.80;100.00;96248.66;5031668;28;20492;-71
2023/04/01 00:12:25;;;;;;;20.13;11.52;;;;;;;8.69;100.00;96117.91;5030998;28;20042;-71
2023/04/01 00:14:50;;;;;;;17.38;12.60;;;;;;;8.99;100.00;96096.84;5031380;28;20033;-71
2023/04/01 00:17:16;;;;;;;21.67;12.82;;;;;;;8.92;100.00;96020.56;5031210;28;20552;-71
2023/04/01 00:19:41;;;;;;;19.20;12.85;;;;;;;9.05;100.00;96012.75;5030838;28;20055;-71
2023/04/01 00:22:09;;;;;;;23.33;14.88;;;;;;;8.30;100.00;96012.41;5031479;28;20057;-72
2023/04/01 00:24:34;;;;;;;24.67;14.82;;;;;;;8.36;100.00;95962.09;5031850;28;20032;-71
2023/04/01 00:26:59;;;;;;;20.92;14.43;;;;;;;8.44;100.00;95909.13;5031365;28;20026;-71
2023/04/01 00:29:29;;;;;;;22.42;15.18;;;;;;;8.43;100.00;95843.47;5030972;28;20037;-71
2023/04/01 00:31:55;;;;;;;27.40;14.50;;;;;;;8.54;100.00;95812.97;5046492;28;20527;-71
2023/04/01 00:34:21;;;;;;;23.30;15.55;;;;;;;8.40;100.00;95699.53;5031285;28;20038;-71
2023/04/01 00:36:46;;;;;;;25.83;15.48;;;;;;;8.61;100.00;95712.81;5029819;28;20033;-71
2023/04/01 00:39:11;;;;;;;22.02;15.50;;;;;;;8.49;100.00;95686.09;5046353;28;20420;-71
2023/04/01 00:41:37;;;;;;;23.95;15.55;;;;;;;8.63;100.00;95643.44;5029511;28;20393;-71
2023/04/01 00:44:19;;;;;;;20.90;14.75;;;;;;;8.70;100.00;95555.06;5030738;28;20416;-72
2023/04/01 00:46:45;;;;;;;22.77;13.85;;;;;;;9.05;100.00;95458.13;5030944;28;20412;-71
2023/04/01 00:49:10;;;;;;;18.05;13.40;;;;;;;9.06;100.00;95396.41;5029519;28;20032;-71
2023/04/01 00:51:37;;;;;;;23.02;14.23;;;;;;;8.54;100.00;95252.06;5031007;28;20025;-71
2023/04/01 00:54:05;;;;;;;22.33;13.85;;;;;;;8.65;100.00;95315.09;5031228;28;20033;-71
2023/04/01 00:56:36;;;;;;;20.48;13.75;;;;;;;8.93;100.00;95325.13;5046306;28;20091;-70
2023/04/01 00:59:08;;;;;;;18.42;12.98;;;;;;;8.75;100.00;95211.25;5030951;28;20036;-70
2023/04/01 01:01:35;;;;;;;16.88;11.93;;;;;;;9.34;100.00;95131.88;5030856;28;20029;-70
2023/04/01 01:04:02;;;;;;;22.25;12.77;;;;;;;9.11;100.00;95158.72;5049688;28;20036;-70
2023/04/01 01:06:27;;;;;;;17.00;11.23;;;;;;;9.11;100.00;95108.09;5041342;28;20033;-71
2023/04/01 01:09:03;;;;;;;20.20;11.32;;;;;;;9.24;100.00;94996.97;5050443;28;20461;-70
2023/04/01 01:11:41;;;;;;;17.75;11.25;;;;;;;8.85;100.00;94889.69;5050622;28;20049;-71
2023/04/01 01:14:15;;;;;;;15.00;10.90;;;;;;;8.88;100.00;94747.63;5050544;28;20040;-71
2023/04/01 01:16:47;;;;;;;19.05;11.27;;;;;;;8.82;100.00;94631.84;5048884;28;20082;-71
2023/04/01 01:19:47;;;;;;;19.42;10.98;;;;;;;8.89;100.00;94632.78;5050566;28;20064;-71
2023/04/01 01:22:32;;;;;;;15.57;8.93;;;;;;;8.90;100.00;94543.22;5050745;28;20388;-71
2023/04/01 01:25:09;;;;;;;14.13;8.65;;;;;;;8.72;100.00;94486.09;5050669;28;20348;-70
2023/04/01 01:27:39;;;;;;;15.43;8.90;;;;;;;8.60;100.00;94415.78;5050802;28;20029;-70
2023/04/01 01:30:22;;;;;;;12.93;8.00;;;;;;;8.43;100.00;94283.63;5048617;28;20056;-71
2023/04/01 01:33:12;;;;;;;16.80;8.68;;;;;;;8.84;100.00;94133.94;5050138;28;20021;-71
2023/04/01 01:35:51;;;;;;;14.77;7.90;;;;;;;8.18;100.00;94021.84;5048812;28;20031;-71
2023/04/01 01:38:21;;;;;;;14.20;7.97;;;;;;;8.80;100.00;94024.72;5049066;28;20025;-70
2023/04/01 01:40:54;;;;;;;12.93;8.60;;;;;;;8.41;100.00;93976.25;5050577;28;20029;-71
2023/04/01 01:43:25;;;;;;;11.10;8.00;;;;;;;8.46;100.00;93969.69;5050224;28;20446;-70
2023/04/01 01:46:00;;;;;;;10.18;6.18;;;;;;;7.99;100.00;93974.38;5049812;28;20040;-71
2023/04/01 01:48:28;;;;;;;16.83;8.85;;;;;;;8.06;100.00;93875.91;5053371;28;20040;-71
2023/04/01 01:50:53;;;;;;;18.67;8.32;;;;;;;7.94;100.00;93888.22;5052608;28;20044;-71
2023/04/01 01:53:19;;;;;;;17.15;8.43;;;;;;;8.01;100.00;93802.38;5054346;28;20033;-72
2023/04/01 01:55:47;;;;;;;18.30;8.63;;;;;;;8.28;100.00;93776.41;5054152;28;20033;-72
2023/04/01 01:58:40;;;;;;;19.85;9.65;;;;;;;8.18;100.00;93774.13;5052836;28;20419;-71
2023/04/01 02:01:09;;;;;;;15.57;9.52;;;;;;;7.86;100.00;93618.03;5053236;28;20036;-71
2023/04/01 02:03:37;;;;;;;18.17;9.85;;;;;;;7.92;100.00;93631.66;5066048;28;20041;-71
2023/04/01 02:06:07;;;;;;;20.60;10.20;;;;;;;7.93;100.00;93636.53;5032787;28;20033;-71
2023/04/01 02:08:44;;;;;;;15.73;9.90;;;;;;;8.02;100.00;93531.06;5032419;28;20160;-71
2023/04/01 02:11:15;;;;;;;17.88;10.02;;;;;;;8.28;100.00;93448.56;5032051;28;20041;-71
2023/04/01 02:13:47;;;;;;;15.82;10.00;;;;;;;7.82;100.00;93445.09;5039699;28;20041;-72
2023/04/01 02:16:20;;;;;;;17.38;10.65;;;;;;;8.06;100.00;93491.81;5054349;28;20033;-71
2023/04/01 02:18:49;;;;;;;18.90;11.20;;;;;;;7.97;100.00;93487.88;5053551;28;20025;-71
2023/04/01 02:21:16;;;;;;;19.30;10.82;;;;;;;8.15;100.00;95382.25;5053945;28;20037;-71
2023/04/01 02:23:42;;;;;;;18.20;10.80;;;;;;;8.36;100.00;95695.69;5053315;28;20025;-71
2023/04/01 02:26:11;;;;;;;17.02;11.30;;;;;;;8.13;100.00;95704.44;5052174;28;20033;-71
2023/04/01 02:28:39;;;;;;;19.20;11.70;;;;;;;7.84;100.00;95725.47;5053718;28;20031;-70
2023/04/01 02:31:05;;;;;;;20.02;12.32;;;;;;;7.95;100.00;95646.19;5053488;28;20029;-71
2023/04/01 02:33:31;;;;;;;16.60;11.65;;;;;;;7.97;100.00;95418.53;5046114;28;20068;-72
2023/04/01 02:35:57;;;;;;;18.63;11.80;;;;;;;8.29;100.00;95262.94;5050857;28;20515;-72
2023/04/01 02:38:23;;;;;;;18.77;12.23;;;;;;;8.30;100.00;95177.75;5053364;28;20025;-74
2023/04/01 02:40:56;;;;;;;20.75;11.93;;;;;;;8.25;100.00;95195.91;5042199;28;20041;-73
2023/04/01 02:43:21;;;;;;;16.15;11.05;;;;;;;8.27;100.00;95173.00;5033840;28;20067;-73
2023/04/01 02:45:47;;;;;;;15.70;10.68;;;;;;;8.09;100.00;95114.84;5040817;28;20476;-72
2023/04/01 02:48:13;;;;;;;17.92;11.23;;;;;;;7.53;100.00;95081.56;5052968;28;20546;-71
2023/04/01 02:50:39;;;;;;;15.90;10.82;;;;;;;8.18;100.00;95149.34;5052505;28;20406;-74
2023/04/01 02:53:06;;;;;;;15.23;10.60;;;;;;;8.20;100.00;95146.69;5052549;28;20037;-73
2023/04/01 02:55:32;;;;;;;16.80;11.13;;;;;;;8.35;100.00;95170.50;5053892;28;20424;-78
2023/04/01 02:57:57;;;;;;;14.90;10.77;;;;;;;8.17;100.00;95168.00;5054100;28;20033;-74
2023/04/01 03:00:23;;;;;;;15.48;10.70;;;;;;;8.31;100.00;95207.16;5053078;28;20400;-74
2023/04/01 03:02:48;;;;;;;18.13;10.85;;;;;;;8.25;100.00;95216.13;5052764;28;20037;-75
2023/04/01 03:05:14;;;;;;;22.45;10.65;;;;;;;8.62;100.00;95248.78;5052048;28;20449;-75
2023/04/01 03:07:39;;;;;;;15.82;9.85;;;;;;;7.99;100.00;95295.34;5053158;28;20029;-75
2023/04/01 03:10:06;;;;;;;17.92;10.15;;;;;;;7.91;100.00;95409.78;5051445;28;20556;-74
2023/04/01 03:12:32;;;;;;;17.10;9.75;;;;;;;8.34;100.00;95798.75;5050797;28;20041;-73
2023/04/01 03:14:57;;;;;;;13.18;9.55;;;;;;;8.29;100.00;95990.56;5052093;28;20067;-76
2023/04/01 03:17:23;;;;;;;13.38;9.55;;;;;;;7.76;100.00;95983.09;5052510;28;20123;-72
2023/04/01 03:19:48;;;;;;;15.75;9.73;;;;;;;8.03;100.00;96192.44;5052590;28;20479;-73
2023/04/01 03:22:14;;;;;;;15.02;10.38;;;;;;;8.12;100.00;96309.78;5053030;28;20029;-73
2023/04/01 03:24:40;;;;;;;15.13;10.18;;;;;;;8.03;100.00;96381.28;5052457;28;20028;-75
2023/04/01 03:27:05;;;;;;;19.38;12.20;;;;;;;8.12;100.00;96547.50;5053237;28;20056;-74
2023/04/01 03:29:30;;;;;;;22.15;13.57;;;;;;;8.27;100.00;96650.94;5053017;28;20033;-73
2023/04/01 03:31:57;;;;;;;21.48;14.13;;;;;;;8.06;100.00;96649.91;5052324;28;20411;-75
2023/04/01 03:34:23;;;;;;;23.15;14.43;;;;;;;8.20;100.00;96933.06;5052484;28;20029;-74
2023/04/01 03:36:49;;;;;;;17.00;12.20;;;;;;;8.06;100.00;96981.22;5047997;28;20035;-73
2023/04/01 03:39:18;;;;;;;16.40;8.20;;;;;;;10.54;100.00;96931.16;5051099;28;20033;-73
2023/04/01 03:41:45;;;;;;;16.27;9.65;;;;;;;10.76;100.00;96988.75;5053130;28;20479;-73
2023/04/01 03:44:11;;;;;;;29.27;9.93;;;;;;;9.93;100.00;97035.63;5045363;28;20057;-73
2023/04/01 03:46:36;;;;;;;14.75;9.23;;;;;;;9.30;100.00;97134.84;5032122;28;20075;-74
2023/04/01 03:49:02;;;;;;;13.45;9.40;;;;;;;8.12;100.00;97218.59;5032390;28;20026;-74
2023/04/01 03:51:28;;;;;;;14.63;9.95;;;;;;;8.37;100.00;97365.50;5040857;28;20033;-74
2023/04/01 03:53:53;;;;;;;16.02;11.07;;;;;;;8.41;100.00;97430.22;5051563;28;20678;-75
2023/04/01 03:56:18;;;;;;;20.15;12.05;;;;;;;8.59;100.00;97479.75;5050453;28;20033;-75
2023/04/01 03:58:44;;;;;;;16.15;11.30;;;;;;;8.31;100.00;97616.44;5050595;28;20029;-75
2023/04/01 04:01:14;;;;;;;18.10;10.27;;;;;;;8.63;100.00;97756.38;5051870;28;20480;-75
2023/04/01 04:03:40;;;;;;;17.65;10.70;;;;;;;8.42;100.00;97868.94;5050923;28;20139;-73
2023/04/01 04:06:10;;;;;;;16.70;11.40;;;;;;;8.39;100.00;97922.25;5051213;28;20025;-74
2023/04/01 04:08:36;;;;;;;17.73;10.60;;;;;;;8.19;100.00;97962.94;5051310;28;20037;-74
2023/04/01 04:11:01;;;;;;;19.38;10.40;;;;;;;8.58;100.00;98073.13;5051633;28;20393;-74
2023/04/01 04:13:27;;;;;;;15.40;10.05;;;;;;;8.43;100.00;98137.22;5052459;28;20159;-75
2023/04/01 04:15:52;;;;;;;16.30;10.68;;;;;;;8.59;100.00;98247.00;5050766;28;20028;-74
2023/04/01 04:18:17;;;;;;;14.70;9.80;;;;;;;8.28;100.00;98230.78;5050854;28;20131;-75
2023/04/01 04:20:47;;;;;;;14.52;10.15;;;;;;;8.73;100.00;98343.38;5050952;28;20490;-75
2023/04/01 04:23:12;;;;;;;17.77;10.27;;;;;;;8.44;100.00;98369.22;5050988;28;20134;-75
2023/04/01 04:25:37;;;;;;;19.17;10.70;;;;;;;8.55;100.00;98435.41;5052209;28;20468;-75
2023/04/01 04:28:03;;;;;;;18.80;9.93;;;;;;;8.65;100.00;98406.25;5050747;28;20032;-76
2023/04/01 04:30:28;;;;;;;18.48;10.52;;;;;;;8.77;100.00;98522.19;5050841;28;20408;-75
2023/04/01 04:32:54;;;;;;;16.77;11.43;;;;;;;8.65;100.00;98583.56;5051986;28;20025;-75
2023/04/01 04:35:19;;;;;;;13.90;10.35;;;;;;;8.45;100.00;98583.56;5050243;28;20037;-76
2023/04/01 04:37:44;;;;;;;17.33;11.00;;;;;;;8.85;100.00;98665.47;5051821;28;20550;-76
2023/04/01 04:40:10;;;;;;;20.23;12.15;;;;;;;8.22;100.00;98684.09;5051648;28;20041;-76
2023/04/01 04:42:35;;;;;;;16.17;11.45;;;;;;;8.26;100.00;98749.75;5051767;28;20639;-76
2023/04/01 04:45:01;;;;;;;18.90;11.32;;;;;;;8.55;100.00;98852.47;5050624;28;20483;-77
2023/04/01 04:47:26;;;;;;;18.27;11.45;;;;;;;8.62;100.00;98882.56;5050515;28;20029;-77
2023/04/01 04:49:52;;;;;;;15.63;11.80;;;;;;;8.47;100.00;98870.47;5050812;28;20064;-76
2023/04/01 04:52:17;;;;;;;18.75;12.15;;;;;;;8.91;100.00;98977.75;5051222;28;20028;-76
2023/04/01 04:54:43;;;;;;;17.42;12.10;;;;;;;8.56;100.00;99031.38;5051658;28;20423;-75
2023/04/01 04:57:08;;;;;;;17.67;11.95;;;;;;;8.83;100.00;99060.00;5050509;28;20024;-76
2023/04/01 04:59:33;;;;;;;20.48;12.48;;;;;;;8.51;100.00;99083.91;5051148;28;20083;-76
2023/04/01 05:01:59;;;;;;;18.77;12.95;;;;;;;8.47;100.00;99143.97;5049867;28;20443;-75
2023/04/01 05:04:24;;;;;;;16.23;12.40;;;;;;;8.64;100.00;99250.63;5051612;28;20037;-75
2023/04/01 05:06:51;;;;;;;19.80;12.40;;;;;;;8.37;100.00;99268.41;5050273;28;20044;-75
2023/04/01 05:09:17;;;;;;;19.60;12.52;;;;;;;8.89;100.00;99348.69;5051264;28;20025;-75
2023/04/01 05:11:42;;;;;;;19.40;13.30;;;;;;;8.96;100.00;99385.63;5049987;28;20052;-74
2023/04/01 05:14:15;;;;;;;32.63;19.95;;;;;;;8.59;100.00;99361.44;5050735;28;20547;-74
2023/04/01 05:16:41;;;;;;;24.08;14.40;;;;;;;8.46;100.00;99390.50;5051097;28;20040;-74
2023/04/01 05:19:06;;;;;;;23.23;12.70;;;;;;;8.51;100.00;99406.41;5050701;28;20017;-75
2023/04/01 05:21:32;;;;;;;21.02;12.13;;;;;;;8.71;100.00;99426.91;5050625;28;20427;-74
2023/04/01 05:23:57;;;;;;;20.65;12.48;;;;;;;8.89;100.00;99438.22;5051104;28;20510;-75
2023/04/01 05:26:22;;;;;;;20.55;13.07;;;;;;;9.03;100.00;99458.91;5049792;28;20178;-75
2023/04/01 05:28:48;;;;;;;22.23;11.60;;;;;;;9.25;100.00;99520.78;5050823;28;20029;-74
2023/04/01 05:31:13;;;;;;;30.63;12.15;;;;;;;9.41;100.00;99538.88;5051198;28;20028;-75
2023/04/01 05:33:39;;;;;;;22.42;11.90;;;;;;;9.39;100.00;99528.81;5051103;28;20025;-75
2023/04/01 05:36:07;;;;;;;28.90;11.13;;;;;;;9.83;100.00;99529.94;5050527;28;20045;-75
2023/04/01 05:38:36;;;;;;;31.95;11.85;;;;;;;9.91;100.00;99537.31;5051617;28;20032;-75
2023/04/01 05:41:02;;;;;;;17.02;10.02;;;;;;;9.92;100.00;99542.38;5050969;28;20033;-76
2023/04/01 05:43:29;;;;;;;26.15;10.38;;;;;;;9.78;100.00;99511.50;5051399;28;20049;-74
2023/04/01 05:45:55;;;;;;;19.38;11.45;;;;;;;9.73;100.00;99532.81;5050166;28;20029;-74
2023/04/01 05:48:20;;;;;;;17.58;9.95;;;;;;;10.13;100.00;99584.84;5050859;28;20147;-75
2023/04/01 05:50:45;;;;;;;19.40;10.82;;;;;;;10.01;100.00;99572.53;5049610;28;20246;-75
2023/04/01 05:53:11;;;;;;;14.27;8.68;;;;;;;10.27;100.00;99619.97;5050311;28;20036;-74
2023/04/01 05:55:36;;;;;;;14.00;10.18;;;;;;;9.88;100.00;99601.72;5049618;28;20115;-75
2023/04/01 05:58:02;;;;;;;18.38;10.10;;;;;;;10.22;100.00;99640.44;5051035;28;20029;-75
2023/04/01 06:00:27;;;;;;;18.95;10.00;;;;;;;10.26;100.00;99649.63;5050527;28;20431;-75
2023/04/01 06:02:53;;;;;;;14.70;9.05;;;;;;;10.34;100.00;99624.78;5050280;28;20113;-75
2023/04/01 06:05:21;;;;;;;15.25;9.65;;;;;;;10.69;100.00;99687.19;5049732;28;20617;-75
2023/04/01 06:07:47;;;;;;;13.05;9.43;;;;;;;10.87;100.00;99690.81;5050422;28;20090;-75
2023/04/01 06:10:18;;;;;;;15.43;9.25;;;;;;;11.02;100.00;99690.28;5050535;28;20029;-75
2023/04/01 06:13:11;;;;;;;12.90;8.33;;;;;;;10.58;100.00;99640.13;5047327;28;20060;-75
2023/04/01 06:15:43;;;;;;;12.85;7.82;;;;;;;10.97;100.00;99704.88;5050862;28;20037;-75
2023/04/01 06:18:11;;;;;;;12.15;8.10;;;;;;;11.18;100.00;99704.13;5050347;28;20092;-74
2023/04/01 06:20:48;;;;;;;12.68;8.20;;;;;;;11.42;100.00;99713.47;5050276;28;20130;-74
2023/04/01 06:23:19;;;;;;;12.73;8.65;;;;;;;11.17;100.00;99722.84;5051085;28;20480;-73
2023/04/01 06:25:50;;;;;;;12.45;7.70;;;;;;;10.76;100.00;99697.97;5050562;28;20484;-74
2023/04/01 06:28:28;;;;;;;8.93;5.70;;;;;;;11.28;100.00;99741.09;5049152;28;20033;-74
2023/04/01 06:31:16;;;;;;;11.30;8.13;;;;;;;11.60;100.00;99739.97;5050643;28;20025;-74
2023/04/01 06:34:06;;;;;;;12.70;7.97;;;;;;;11.81;100.00;99729.84;5051999;28;20063;-74
2023/04/01 06:36:42;;;;;;;13.68;8.38;;;;;;;11.99;100.00;99749.56;5050039;28;20045;-74
2023/04/01 06:39:38;;;;;;;10.25;8.02;;;;;;;12.02;100.00;99751.97;5052254;28;20086;-74
2023/04/01 06:42:24;;;;;;;13.93;8.10;;;;;;;12.86;100.00;99750.34;5053349;28;20056;-74
2023/04/01 06:45:07;;;;;;;15.18;7.65;;;;;;;12.10;100.00;99699.00;5053961;28;20035;-73
2023/04/01 06:47:54;;;;;;;13.93;8.00;;;;;;;11.88;100.00;99811.97;5053590;28;20021;-74
2023/04/01 06:50:48;;;;;;;15.15;8.02;;;;;;;12.00;100.00;99797.06;5032587;28;20033;-74
2023/04/01 06:53:24;;;;;;;13.23;8.32;;;;;;;11.88;100.00;99776.31;5032451;28;20037;-73
2023/04/01 06:55:59;;;;;;;15.85;9.00;;;;;;;11.99;100.00;99841.28;5033769;28;20040;-74
2023/04/01 06:58:30;;;;;;;13.07;8.75;;;;;;;11.75;100.00;99786.09;5033280;28;20041;-74
2023/04/01 07:01:04;;;;;;;15.73;8.60;;;;;;;11.73;100.00;99813.34;5032066;28;20179;-75
2023/04/01 07:03:36;;;;;;;15.70;8.57;;;;;;;11.77;100.00;99808.97;5033193;28;20029;-73
2023/04/01 07:06:05;;;;;;;13.88;8.25;;;;;;;11.97;100.00;99867.69;5033418;28;20033;-74
2023/04/01 07:08:35;;;;;;;12.32;8.20;;;;;;;11.76;100.00;99854.00;5033500;28;20026;-74
2023/04/01 07:11:04;;;;;;;11.07;8.40;;;;;;;11.71;100.00;99799.84;5033538;28;20025;-74
2023/04/01 07:13:49;;;;;;;14.13;9.00;;;;;;;11.59;100.00;99801.97;5031785;28;20401;-74
2023/04/01 07:16:32;;;;;;;12.45;8.45;;;;;;;11.96;100.00;99828.63;5033331;28;20539;-74
2023/04/01 07:19:14;;;;;;;16.75;9.35;;;;;;;11.78;100.00;99775.00;5033019;28;20034;-74
2023/04/01 07:21:54;;;;;;;12.50;8.48;;;;;;;12.51;100.00;99834.25;5033368;28;20093;-74
2023/04/01 07:24:41;;;;;;;13.63;8.77;;;;;;;12.65;100.00;99847.31;5033280;28;20035;-74
2023/04/01 07:27:11;;;;;;;13.45;8.45;;;;;;;11.86;100.00;99778.94;5033218;28;20314;-74
2023/04/01 07:29:37;;;;;;;12.85;8.93;;;;;;;12.57;100.00;99862.06;5032805;28;20111;-74
2023/04/01 07:32:48;;;;;;;12.30;7.97;;;;;;;12.54;100.00;99865.56;5031990;28;20029;-74
2023/04/01 07:35:43;;;;;;;12.77;9.32;;;;;;;12.54;100.00;99857.09;5031711;28;20041;-74
2023/04/01 07:38:17;;;;;;;14.93;8.60;;;;;;;12.07;100.00;99813.81;5033033;28;20133;-75
2023/04/01 07:40:59;;;;;;;13.60;8.00;;;;;;;12.65;100.00;99881.28;5032881;28;20029;-75
2023/04/01 07:43:25;;;;;;;16.20;7.65;;;;;;;12.94;100.00;99885.25;5032821;28;20095;-75
2023/04/01 07:46:11;;;;;;;14.50;7.70;;;;;;;13.05;100.00;99876.31;5031624;28;20116;-74
2023/04/01 07:48:42;;;;;;;10.88;7.53;;;;;;;12.97;100.00;99914.03;5031418;28;20506;-74
2023/04/01 07:51:20;;;;;;;11.77;7.72;;;;;;;12.58;100.00;99830.56;5031446;28;20450;-73
2023/04/01 07:53:51;;;;;;;13.88;7.70;;;;;;;12.95;100.00;99905.59;5032438;28;20037;-74
2023/04/01 07:56:26;;;;;;;11.77;8.38;;;;;;;12.87;100.00;99861.72;5031594;28;20492;-74
2023/04/01 07:58:58;;;;;;;17.90;8.93;;;;;;;13.23;100.00;99917.34;5032265;28;20033;-74
2023/04/01 08:01:45;;;;;;;11.25;7.88;;;;;;;13.30;100.00;99899.16;5032477;28;20028;-74
2023/04/01 08:04:40;;;;;;;13.90;7.45;;;;;;;13.59;100.00;99910.72;5030895;28;20488;-74
2023/04/01 08:07:26;;;;;;;12.00;7.68;;;;;;;14.45;100.00;99868.63;5032257;28;20116;-74
2023/04/01 08:10:18;;;;;;;12.13;6.07;;;;;;;15.14;100.00;99875.56;5064654;28;20029;-75
2023/04/01 08:13:07;;;;;;;10.82;6.80;;;;;;;15.55;100.00;99861.59;5032110;28;20095;-75
2023/04/01 08:15:55;;;;;;;10.52;6.38;;;;;;;15.32;100.00;99848.22;5031258;28;20063;-74
2023/04/01 08:18:27;;;;;;;11.90;6.38;;;;;;;16.08;100.00;99833.22;5032658;28;20037;-75
2023/04/01 08:20:56;;;;;;;11.13;5.88;;;;;;;16.68;100.00;99811.09;5030272;28;20068;-74
2023/04/01 08:23:32;;;;;;;11.70;6.03;;;;;;;16.34;100.00;99806.97;5030899;28;20037;-73
2023/04/01 08:26:09;;;;;;;11.70;5.63;;;;;;;16.40;100.00;99749.38;5031653;28;20057;-74
2023/04/01 08:28:44;;;;;;;9.80;5.20;;;;;;;15.77;100.00;99779.28;5032201;28;20032;-75
2023/04/01 08:31:25;;;;;;;13.30;5.57;;;;;;;14.59;100.00;99756.25;5031368;28;20095;-74
2023/04/01 08:33:54;;;;;;;8.88;5.50;;;;;;;16.94;100.00;99805.34;5032226;28;20044;-75
2023/04/01 08:36:27;;;;;;;11.95;5.00;;;;;;;17.07;100.00;99743.84;5030883;28;20518;-75
2023/04/01 08:39:09;;;;;;;12.23;5.55;;;;;;;16.98;100.00;99741.78;5031843;28;20029;-75
2023/04/01 08:41:50;;;;;;;10.98;5.60;;;;;;;18.11;100.00;99701.44;5031477;28;20490;-74
2023/04/01 08:44:24;;;;;;;13.00;5.50;;;;;;;17.91;100.00;99678.72;5031941;28;20030;-75
2023/04/01 08:47:27;;;;;;;9.30;5.22;;;;;;;17.52;100.00;99653.72;5031675;28;20025;-75
2023/04/01 08:50:09;;;;;;;11.50;5.45;;;;;;;17.77;100.00;99593.88;5031968;28;20033;-73
2023/04/01 08:52:50;;;;;;;11.23;5.30;;;;;;;17.23;100.00;99575.00;5032124;28;20025;-75
2023/04/01 08:55:31;;;;;;;8.73;5.05;;;;;;;17.66;100.00;99610.00;5032254;28;20033;-75
2023/04/01 08:57:59;;;;;;;12.02;5.70;;;;;;;18.34;100.00;99561.81;5030528;28;20514;-76
2023/04/01 09:00:41;;;;;;;13.73;5.78;;;;;;;17.35;100.00;99613.59;5031320;28;20033;-75
2023/04/01 09:03:41;;;;;;;12.68;5.75;;;;;;;17.67;100.00;99598.78;5029737;28;20456;-75
2023/04/01 09:06:09;;;;;;;9.25;5.50;;;;;;;18.94;100.00;99590.34;5030148;28;20110;-74
2023/04/01 09:09:05;;;;;;;10.95;5.53;;;;;;;18.13;100.00;99573.50;5030899;28;20029;-74
2023/04/01 09:12:19;;;;;;;9.98;5.05;;;;;;;17.47;100.00;99508.41;5031149;28;20091;-75
2023/04/01 09:15:02;;;;;;;15.25;5.25;;;;;;;18.18;100.00;99571.47;5031066;28;20037;-74
2023/04/01 09:17:56;;;;;;;11.38;5.50;;;;;;;17.37;100.00;99590.41;5030306;28;20123;-74
2023/04/01 09:20:51;;;;;;;11.43;5.25;;;;;;;18.18;100.00;99602.34;5031326;28;20029;-75
2023/04/01 09:23:29;;;;;;;11.55;5.75;;;;;;;18.53;100.00;99561.44;5029304;28;20045;-74
2023/04/01 09:26:15;;;;;;;15.57;5.40;;;;;;;18.59;100.00;99510.34;5029702;28;20033;-74
2023/04/01 09:29:04;;;;;;;10.35;5.40;;;;;;;19.08;100.00;99530.97;5030966;28;20049;-75
2023/04/01 09:31:39;;;;;;;12.00;5.55;;;;;;;17.84;100.00;99551.44;5030941;28;20022;-74
2023/04/01 09:34:22;;;;;;;10.43;4.82;;;;;;;18.45;100.00;99541.34;5030993;28;20028;-72
2023/04/01 09:37:01;;;;;;;11.73;4.97;;;;;;;17.76;100.00;99556.25;5030850;28;20026;-74
2023/04/01 09:39:26;;;;;;;11.75;5.05;;;;;;;17.86;100.00;99567.59;5029354;28;20086;-74
2023/04/01 09:41:58;;;;;;;9.45;4.50;;;;;;;17.66;100.00;99574.00;5030869;28;20037;-72
2023/04/01 09:44:34;;;;;;;7.75;4.40;;;;;;;17.46;100.00;99594.13;5030870;28;20036;-72
2023/04/01 09:47:21;;;;;;;7.85;4.80;;;;;;;18.28;100.00;99563.97;5030891;28;20042;-72
2023/04/01 09:49:59;;;;;;;12.95;5.32;;;;;;;17.82;100.00;99571.28;5031319;28;20034;-73
2023/04/01 09:52:30;;;;;;;11.45;5.80;;;;;;;19.15;100.00;99500.44;5030618;28;20099;-72
2023/04/01 09:55:05;;;;;;;12.40;5.30;;;;;;;19.04;100.00;99478.00;5029471;28;20037;-72
2023/04/01 09:57:58;;;;;;;12.07;5.50;;;;;;;18.97;100.00;99493.06;5030811;28;20427;-72
2023/04/01 10:00:32;;;;;;;8.38;4.50;;;;;;;19.05;100.00;99485.59;5030331;28;20120;-72
2023/04/01 10:03:19;;;;;;;14.65;4.45;;;;;;;18.49;100.00;99499.03;5030447;28;20048;-73
2023/04/01 10:06:23;;;;;;;10.15;4.80;;;;;;;18.13;100.00;99492.00;5030748;28;20055;-72
2023/04/01 10:09:06;;;;;;;13.85;5.30;;;;;;;18.30;100.00;99496.03;5031640;28;20072;-73
2023/04/01 10:11:53;;;;;;;13.05;5.45;;;;;;;18.37;100.00;99497.25;5034534;28;20029;-72
2023/04/01 10:14:57;;;;;;;9.77;5.70;;;;;;;18.25;100.00;99494.66;5034639;28;20045;-73
2023/04/01 10:17:38;;;;;;;10.30;5.05;;;;;;;18.30;100.00;99505.50;5033200;28;20075;-74
2023/04/01 10:20:45;;;;;;;10.23;5.10;;;;;;;18.06;100.00;99488.16;5033014;28;20124;-74
2023/04/01 10:23:29;;;;;;;8.40;4.90;;;;;;;18.30;100.00;99493.47;5033950;28;20052;-74
2023/04/01 10:26:00;;;;;;;15.00;5.25;;;;;;;18.71;100.00;99495.81;5034099;28;20079;-73
2023/04/01 10:28:55;;;;;;;13.48;5.47;;;;;;;18.71;100.00;99480.34;5034249;28;20030;-73
2023/04/01 10:31:39;;;;;;;9.55;5.30;;;;;;;18.77;100.00;99477.34;5034032;28;20057;-73
2023/04/01 10:34:23;;;;;;;12.50;5.10;;;;;;;18.41;100.00;99466.97;5032750;28;20029;-73
2023/04/01 10:36:53;;;;;;;10.98;5.50;;;;;;;18.04;100.00;99433.41;5034400;28;20029;-74
2023/04/01 10:39:30;;;;;;;10.48;5.05;;;;;;;18.29;100.00;99453.19;5032827;28;20076;-73
2023/04/01 10:42:08;;;;;;;16.90;7.80;;;;;;;18.16;100.00;99475.53;5032665;28;20033;-73
2023/04/01 10:44:59;;;;;;;15.68;6.57;;;;;;;18.31;100.00;99478.81;5034036;28;20033;-72
2023/04/01 10:47:30;;;;;;;9.07;5.10;;;;;;;18.38;100.00;99483.44;5033979;28;20119;-73
2023/04/01 10:50:32;;;;;;;11.25;4.97;;;;;;;18.76;100.00;99471.38;5034444;28;20088;-75
2023/04/01 10:53:29;;;;;;;11.77;5.03;;;;;;;18.58;100.00;99477.00;5034014;28;20522;-75
2023/04/01 10:56:28;;;;;;;10.07;5.03;;;;;;;18.34;100.00;99470.91;5033633;28;20048;-75
2023/04/01 10:59:24;;;;;;;11.93;5.38;;;;;;;18.50;100.00;99477.50;5033304;28;20037;-73
2023/04/01 11:02:01;;;;;;;15.45;5.40;;;;;;;18.39;100.00;99497.13;5033546;28;20030;-73
2023/04/01 11:04:55;;;;;;;12.63;5.13;;;;;;;18.20;100.00;99471.84;5033433;28;20033;-75
2023/04/01 11:07:46;;;;;;;7.95;4.78;;;;;;;18.53;100.00;99476.47;5032443;28;20037;-75
2023/04/01 11:10:43;;;;;;;10.20;5.20;;;;;;;18.09;100.00;99482.84;5033456;28;20061;-73
2023/04/01 11:13:16;;;;;;;14.25;5.28;;;;;;;18.46;100.00;99475.25;5033149;28;20133;-73
2023/04/01 11:16:09;;;;;;;12.05;5.70;;;;;;;18.51;100.00;99489.44;5032522;28;20393;-75
2023/04/01 11:18:41;;;;;;;15.20;5.68;;;;;;;18.38;100.00;99482.63;5033623;28;20104;-74
2023/04/01 11:21:25;;;;;;;12.82;5.93;;;;;;;18.36;100.00;99474.19;5030840;28;20407;-74
2023/04/01 11:24:21;;;;;;;13.25;5.30;;;;;;;18.23;100.00;99476.75;5031811;28;20037;-73
2023/04/01 11:26:55;;;;;;;12.48;5.10;;;;;;;18.23;100.00;99483.66;5033261;28;20029;-75
2023/04/01 11:29:42;;;;;;;13.20;5.65;;;;;;;18.17;100.00;99465.13;5033351;28;20423;-75
2023/04/01 11:32:26;;;;;;;10.95;5.28;;;;;;;18.06;100.00;99469.34;5031636;28;20484;-75
2023/04/01 11:35:03;;;;;;;9.90;5.30;;;;;;;18.31;100.00;99479.66;5032868;28;20116;-75
2023/04/01 11:38:09;;;;;;;11.25;5.15;;;;;;;18.16;100.00;99400.91;5032987;28;20461;-75
2023/04/01 11:41:03;;;;;;;11.65;5.28;;;;;;;18.91;100.00;99446.31;5031317;28;20480;-74
2023/04/01 11:43:52;;;;;;;13.13;4.90;;;;;;;19.00;100.00;99430.19;5032133;28;20128;-75
2023/04/01 11:46:44;;;;;;;18.38;6.50;;;;;;;19.29;100.00;99330.97;5032347;28;20049;-74
2023/04/01 11:49:50;;;;;;;15.93;5.38;;;;;;;21.11;100.00;99314.97;5031650;28;20559;-75
2023/04/01 11:52:46;;;;;;;20.60;4.28;;;;;;;20.84;100.00;99048.44;5044056;28;20033;-75